Time;durP1;ratioP1;P1;durP2;ratioP2;P2;SDS_P1;SDS_P2;PMS_P1;PMS_P2;Temp;Humidity;BMP_temperature;BMP_pressure;BME280_temperature;BME280_humidity;BME280_pressure;Samples;Min_cycle;Max_cycle;Signal;HPM_P1;HPM_P2
2024/02/08 11:25:09;;;;;;;;;22.00;16.50;;;;;;;;5105291;27;13405;-83
2024/02/08 11:27:34;;;;;;;;;21.00;18.50;;;;;;;;5107786;28;11490;-84
2024/02/08 11:30:00;;;;;;;;;22.00;18.75;;;;;;;;5108092;28;11629;-83
2024/02/08 11:32:27;;;;;;;;;24.50;21.50;;;;;;;;5106217;28;8826;-83
2024/02/08 11:35:00;;;;;;;;;22.50;17.00;;;;;;;;5107312;28;8804;-82
2024/02/08 11:37:29;;;;;;;;;27.00;25.25;;;;;;;;5108474;28;11603;-83
2024/02/08 11:40:00;;;;;;;;;25.25;22.25;;;;;;;;5089186;28;11537;-83
2024/02/08 11:42:31;;;;;;;;;31.75;29.25;;;;;;;;5094405;28;11535;-83
2024/02/08 11:45:00;;;;;;;;;29.00;25.75;;;;;;;;5106624;28;11582;-83
2024/02/08 11:47:25;;;;;;;;;27.75;26.50;;;;;;;;5106832;28;11492;-85
2024/02/08 11:49:52;;;;;;;;;25.50;22.50;;;;;;;;5111329;28;11509;-81
2024/02/08 11:52:19;;;;;;;;;22.75;21.75;;;;;;;;5081379;28;9848;-76
2024/02/08 11:54:45;;;;;;;;;25.00;24.25;;;;;;;;5047267;28;11524;-76
2024/02/08 11:57:11;;;;;;;;;23.00;20.50;;;;;;;;5047004;28;11517;-76
2024/02/08 11:59:38;;;;;;;;;24.50;22.00;;;;;;;;5046706;28;8804;-76
2024/02/08 12:02:07;;;;;;;;;22.50;20.00;;;;;;;;5043049;28;11497;-76
2024/02/08 12:04:34;;;;;;;;;26.50;19.00;;;;;;;;5046623;28;11495;-78
2024/02/08 12:07:02;;;;;;;;;22.75;19.75;;;;;;;;5046945;28;12593;-77
2024/02/08 12:09:31;;;;;;;;;20.75;19.00;;;;;;;;5046516;28;11570;-76
2024/02/08 12:11:56;;;;;;;;;24.00;19.00;;;;;;;;5042976;28;11495;-80
2024/02/08 12:14:22;;;;;;;;;22.75;20.00;;;;;;;;5046728;28;11487;-77
2024/02/08 12:16:50;;;;;;;;;21.50;17.25;;;;;;;;5045532;28;9573;-77
2024/02/08 12:19:16;;;;;;;;;28.00;21.75;;;;;;;;5044688;28;8954;-78
2024/02/08 12:21:42;;;;;;;;;36.75;30.25;;;;;;;;5044333;28;11479;-76
2024/02/08 12:24:15;;;;;;;;;37.75;29.25;;;;;;;;5045155;28;8839;-73
2024/02/08 12:26:41;;;;;;;;;30.00;24.75;;;;;;;;5046497;28;11555;-72
2024/02/08 12:29:16;;;;;;;;;28.75;25.75;;;;;;;;5045948;28;11526;-79
2024/02/08 12:31:45;;;;;;;;;25.00;18.75;;;;;;;;5045122;28;8929;-77
2024/02/08 12:34:13;;;;;;;;;8.50;8.00;;;;;;;;5042727;28;11499;-75
2024/02/08 12:36:40;;;;;;;;;44.00;38.00;;;;;;;;5031944;28;11521;-77
2024/02/08 12:39:17;;;;;;;;;28.50;27.75;;;;;;;;5032391;28;12275;-75
2024/02/08 12:41:43;;;;;;;;;23.00;20.00;;;;;;;;5031716;28;11566;-74
2024/02/08 12:44:09;;;;;;;;;23.00;19.50;;;;;;;;5032472;28;11554;-74
2024/02/08 12:46:35;;;;;;;;;17.50;17.00;;;;;;;;5033325;28;11498;-76
2024/02/08 12:49:00;;;;;;;;;20.00;18.25;;;;;;;;5042817;28;8866;-76
2024/02/08 12:51:25;;;;;;;;;29.75;26.50;;;;;;;;5032826;28;8788;-76
2024/02/08 12:53:57;;;;;;;;;33.25;29.00;;;;;;;;5032395;28;8847;-77
2024/02/08 12:56:22;;;;;;;;;21.25;21.25;;;;;;;;5031734;28;8783;-76
2024/02/08 12:59:01;;;;;;;;;22.25;20.50;;;;;;;;5031979;28;12315;-74
2024/02/08 13:01:33;;;;;;;;;24.25;19.25;;;;;;;;5031332;28;8795;-73
2024/02/08 13:03:59;;;;;;;;;19.25;18.25;;;;;;;;5031917;28;12180;-73
2024/02/08 13:06:24;;;;;;;;;19.25;17.75;;;;;;;;5029872;28;11509;-74
2024/02/08 13:08:49;;;;;;;;;19.25;17.00;;;;;;;;5016200;28;8857;-74
2024/02/08 13:11:20;;;;;;;;;22.25;20.75;;;;;;;;5012928;28;8919;-78
2024/02/08 13:13:48;;;;;;;;;26.00;21.25;;;;;;;;5012805;28;8787;-78
2024/02/08 13:16:13;;;;;;;;;22.00;18.75;;;;;;;;5027210;28;11505;-75
2024/02/08 13:18:39;;;;;;;;;21.00;20.75;;;;;;;;5031097;28;11583;-73
2024/02/08 13:21:04;;;;;;;;;24.25;20.75;;;;;;;;5032286;28;9685;-75
2024/02/08 13:23:30;;;;;;;;;16.75;14.00;;;;;;;;5047217;28;9643;-74
2024/02/08 13:25:55;;;;;;;;;16.50;14.25;;;;;;;;5032057;28;8795;-72
2024/02/08 13:28:23;;;;;;;;;16.50;14.75;;;;;;;;5031962;28;8862;-73
2024/02/08 13:30:51;;;;;;;;;14.75;13.75;;;;;;;;5032231;28;8816;-72
2024/02/08 13:33:17;;;;;;;;;23.25;16.25;;;;;;;;5031704;28;11491;-72
2024/02/08 13:35:43;;;;;;;;;13.75;12.25;;;;;;;;5031904;28;11477;-72
2024/02/08 13:38:11;;;;;;;;;8.75;8.75;;;;;;;;5031930;28;8842;-73
2024/02/08 13:40:42;;;;;;;;;11.00;9.00;;;;;;;;5030861;28;8874;-71
2024/02/08 13:43:10;;;;;;;;;12.00;10.00;;;;;;;;5031417;28;11453;-72
2024/02/08 13:45:36;;;;;;;;;17.00;15.00;;;;;;;;5031728;28;11459;-73
2024/02/08 13:48:03;;;;;;;;;12.75;10.00;;;;;;;;5030447;28;11242;-73
2024/02/08 13:50:28;;;;;;;;;13.75;11.75;;;;;;;;5030577;28;8796;-74
2024/02/08 13:52:54;;;;;;;;;16.25;15.00;;;;;;;;5031600;28;11535;-73
2024/02/08 13:55:20;;;;;;;;;15.75;14.25;;;;;;;;5031401;28;8985;-72
2024/02/08 13:57:51;;;;;;;;;18.00;14.75;;;;;;;;5029522;28;8808;-72
2024/02/08 14:00:20;;;;;;;;;17.00;14.50;;;;;;;;5021393;28;8888;-73
2024/02/08 14:02:49;;;;;;;;;15.50;14.00;;;;;;;;5011526;28;11509;-73
2024/02/08 14:05:18;;;;;;;;;21.50;16.00;;;;;;;;5043014;28;11494;-72
2024/02/08 14:07:44;;;;;;;;;18.75;16.75;;;;;;;;5011361;28;11476;-74
2024/02/08 14:10:12;;;;;;;;;15.75;15.75;;;;;;;;5011360;28;11532;-73
2024/02/08 14:12:45;;;;;;;;;16.50;15.00;;;;;;;;5011586;28;11511;-74
2024/02/08 14:15:10;;;;;;;;;20.00;16.00;;;;;;;;5011199;28;12226;-71
2024/02/08 14:17:37;;;;;;;;;19.75;17.00;;;;;;;;5042815;28;11506;-74
2024/02/08 14:20:30;;;;;;;;;16.25;16.25;;;;;;;;5042975;28;9598;-74
2024/02/08 14:22:51;;;;;;;;;20.50;20.00;;;;;;;;5013844;28;12088;-75
2024/02/08 14:25:23;;;;;;;;;18.75;17.50;;;;;;;;5030601;28;11476;-74
2024/02/08 14:27:48;;;;;;;;;21.00;17.50;;;;;;;;5030672;28;11469;-77
2024/02/08 14:30:19;;;;;;;;;21.25;17.00;;;;;;;;5029130;28;11504;-75
2024/02/08 14:32:44;;;;;;;;;22.50;19.25;;;;;;;;5020055;28;8800;-76
2024/02/08 14:35:16;;;;;;;;;18.50;16.25;;;;;;;;5030294;28;11468;-76
2024/02/08 14:37:46;;;;;;;;;15.75;12.75;;;;;;;;5030797;28;8885;-74
2024/02/08 14:40:13;;;;;;;;;19.75;15.00;;;;;;;;5030875;28;11459;-73
2024/02/08 14:42:43;;;;;;;;;18.00;12.50;;;;;;;;5030781;28;11457;-77
2024/02/08 14:45:11;;;;;;;;;18.50;15.50;;;;;;;;5030573;28;11490;-74
2024/02/08 14:47:37;;;;;;;;;19.75;15.00;;;;;;;;5030371;28;11466;-75
2024/02/08 14:50:43;;;;;;;;;17.75;17.75;;;;;;;;5037239;28;11460;-77
2024/02/08 14:53:11;;;;;;;;;19.25;17.25;;;;;;;;5050490;28;8829;-75
2024/02/08 14:55:52;;;;;;;;;19.00;17.50;;;;;;;;5048000;28;11487;-82
2024/02/08 14:58:33;;;;;;;;;23.50;16.25;;;;;;;;5032303;28;11639;-72
2024/02/08 15:01:30;;;;;;;;;17.50;16.00;;;;;;;;5029880;28;11536;-69
2024/02/08 15:03:58;;;;;;;;;17.00;16.00;;;;;;;;5028777;28;11508;-72
2024/02/08 15:06:39;;;;;;;;;16.00;15.00;;;;;;;;5029391;28;11487;-71
2024/02/08 15:12:09;;;;;;;;;16.25;13.25;;;;;;;;5029771;28;11210;-71
2024/02/08 15:14:37;;;;;;;;;16.00;14.25;;;;;;;;5027322;28;11475;-72
2024/02/08 15:17:18;;;;;;;;;12.50;10.25;;;;;;;;5029406;28;11568;-71
2024/02/08 15:19:46;;;;;;;;;18.50;14.00;;;;;;;;5028371;28;12234;-73
2024/02/08 15:24:57;;;;;;;;;17.00;14.00;;;;;;;;5026965;28;11487;-79
2024/02/08 15:30:15;;;;;;;;;14.00;12.00;;;;;;;;5026679;28;11582;-73
2024/02/08 15:32:47;;;;;;;;;14.25;10.75;;;;;;;;5028260;28;11485;-76
2024/02/08 15:35:26;;;;;;;;;17.50;14.00;;;;;;;;5029662;28;11555;-74
2024/02/08 15:40:44;;;;;;;;;14.25;13.50;;;;;;;;5030153;28;11581;-75
2024/02/08 15:43:15;;;;;;;;;15.75;13.75;;;;;;;;5024035;28;11654;-77
2024/02/08 15:45:41;;;;;;;;;10.00;10.00;;;;;;;;5028097;28;11452;-75
2024/02/08 15:48:10;;;;;;;;;14.25;11.50;;;;;;;;5028288;28;11206;-73
2024/02/08 15:50:41;;;;;;;;;9.25;9.00;;;;;;;;5028475;28;8827;-79
2024/02/08 15:53:16;;;;;;;;;21.00;16.25;;;;;;;;5026064;28;11437;-77
2024/02/08 15:55:42;;;;;;;;;20.00;14.00;;;;;;;;5024664;28;11507;-75
2024/02/08 15:58:18;;;;;;;;;10.25;9.75;;;;;;;;5028944;28;11521;-75
2024/02/08 16:01:17;;;;;;;;;15.25;9.50;;;;;;;;5029082;28;11459;-78
2024/02/08 16:07:11;;;;;;;;;17.25;16.50;;;;;;;;5027534;28;11461;-84
2024/02/08 16:09:07;;;;;;;;;14.00;13.25;;;;;;;;5018882;28;11638;-75
2024/02/08 16:11:34;;;;;;;;;15.00;13.50;;;;;;;;5032099;28;12200;-73
2024/02/08 16:14:15;;;;;;;;;15.25;12.25;;;;;;;;5032160;28;11497;-76
2024/02/08 16:16:45;;;;;;;;;17.00;15.50;;;;;;;;5032543;28;11474;-81
2024/02/08 16:19:23;;;;;;;;;16.00;13.00;;;;;;;;5033586;28;11495;-76
2024/02/08 16:21:49;;;;;;;;;16.25;14.75;;;;;;;;5053089;28;11578;-77
2024/02/08 16:24:17;;;;;;;;;17.75;13.75;;;;;;;;5052797;28;11615;-75
2024/02/08 16:26:52;;;;;;;;;17.50;16.75;;;;;;;;5053396;28;8782;-77
2024/02/08 16:29:20;;;;;;;;;25.00;20.50;;;;;;;;5040501;28;12349;-73
2024/02/08 16:31:54;;;;;;;;;22.00;18.50;;;;;;;;5045030;28;11506;-70
2024/02/08 16:34:25;;;;;;;;;21.50;18.25;;;;;;;;5040355;28;11451;-74
2024/02/08 16:36:52;;;;;;;;;23.75;20.50;;;;;;;;5043578;28;11447;-82
2024/02/08 16:41:47;;;;;;;;;18.25;17.25;;;;;;;;5029776;28;12368;-71
2024/02/08 16:44:16;;;;;;;;;21.00;18.25;;;;;;;;5029769;28;8854;-75
2024/02/08 16:46:51;;;;;;;;;19.00;18.00;;;;;;;;5030280;28;11481;-73
2024/02/08 16:49:17;;;;;;;;;25.00;21.50;;;;;;;;5028481;28;11465;-74
2024/02/08 16:51:47;;;;;;;;;25.25;21.25;;;;;;;;5032381;28;11515;-74
2024/02/08 16:54:33;;;;;;;;;27.25;26.00;;;;;;;;5029975;28;8830;-75
2024/02/08 16:57:03;;;;;;;;;32.25;27.00;;;;;;;;5030364;28;11533;-75
2024/02/08 16:59:29;;;;;;;;;26.50;25.25;;;;;;;;5027417;28;11550;-76
2024/02/08 17:02:04;;;;;;;;;34.25;31.50;;;;;;;;5031991;28;12323;-75
2024/02/08 17:04:40;;;;;;;;;30.75;29.00;;;;;;;;5029686;28;8847;-74
2024/02/08 17:07:10;;;;;;;;;28.50;25.75;;;;;;;;5032217;28;11540;-76
2024/02/08 17:09:43;;;;;;;;;39.25;29.50;;;;;;;;5030661;28;11555;-76
2024/02/08 17:12:18;;;;;;;;;29.75;29.75;;;;;;;;5032540;28;11579;-75
2024/02/08 17:14:46;;;;;;;;;38.25;34.00;;;;;;;;5030974;28;11574;-78
2024/02/08 17:17:35;;;;;;;;;43.00;39.00;;;;;;;;5032267;28;11534;-77
2024/02/08 17:20:03;;;;;;;;;65.25;47.00;;;;;;;;5030880;28;11540;-83
2024/02/08 17:22:48;;;;;;;;;63.00;49.25;;;;;;;;5029005;28;11580;-80
2024/02/08 17:28:00;;;;;;;;;50.25;40.00;;;;;;;;5031126;28;11687;-80
2024/02/08 17:30:36;;;;;;;;;63.75;48.00;;;;;;;;5028757;28;8803;-78
2024/02/08 17:33:02;;;;;;;;;51.00;43.25;;;;;;;;5030416;28;11641;-78
2024/02/08 17:35:34;;;;;;;;;46.25;40.75;;;;;;;;5029126;28;12292;-77
2024/02/08 17:38:02;;;;;;;;;42.00;36.50;;;;;;;;5028401;28;8912;-83
2024/02/08 17:40:30;;;;;;;;;57.25;47.75;;;;;;;;5028642;28;11534;-76
2024/02/08 17:42:59;;;;;;;;;82.00;65.00;;;;;;;;5028306;28;11684;-82
2024/02/08 17:45:32;;;;;;;;;72.00;57.67;;;;;;;;5031644;28;9501;-78
2024/02/08 17:47:59;;;;;;;;;49.75;40.75;;;;;;;;5031835;28;8776;-76
2024/02/08 17:50:33;;;;;;;;;41.50;32.25;;;;;;;;5033199;28;11644;-77
2024/02/08 17:53:00;;;;;;;;;41.75;38.00;;;;;;;;5011650;28;11556;-72
2024/02/08 17:55:33;;;;;;;;;28.50;27.75;;;;;;;;5018488;28;11670;-74
2024/02/08 17:57:58;;;;;;;;;36.75;33.50;;;;;;;;5031491;28;11524;-75
2024/02/08 18:00:24;;;;;;;;;30.75;29.00;;;;;;;;5029075;28;11636;-74
2024/02/08 18:02:52;;;;;;;;;36.00;30.75;;;;;;;;5030415;28;8803;-75
2024/02/08 18:05:18;;;;;;;;;37.25;35.00;;;;;;;;5029297;28;8792;-74
2024/02/08 18:07:48;;;;;;;;;37.50;33.50;;;;;;;;5029937;28;11538;-74
2024/02/08 18:10:17;;;;;;;;;35.50;31.25;;;;;;;;5029946;28;11648;-74
2024/02/08 18:12:42;;;;;;;;;49.25;39.25;;;;;;;;5030653;28;8792;-73
2024/02/08 18:15:12;;;;;;;;;42.50;36.25;;;;;;;;5030480;28;11704;-76
2024/02/08 18:17:44;;;;;;;;;12.00;7.50;;;;;;;;5031485;28;8808;-75
2024/02/08 18:20:15;;;;;;;;;36.00;36.00;;;;;;;;5030509;28;11556;-77
2024/02/08 18:22:41;;;;;;;;;37.75;34.25;;;;;;;;5028972;28;11585;-77
2024/02/08 18:25:07;;;;;;;;;48.00;38.75;;;;;;;;5028721;28;11571;-77
2024/02/08 18:27:33;;;;;;;;;33.00;31.75;;;;;;;;5028171;28;8783;-75
2024/02/08 18:29:58;;;;;;;;;42.25;39.25;;;;;;;;5028956;28;11572;-74
2024/02/08 18:32:24;;;;;;;;;43.25;38.50;;;;;;;;5028017;28;9685;-74
2024/02/08 18:34:50;;;;;;;;;46.50;38.75;;;;;;;;5026706;28;8815;-73
2024/02/08 18:37:24;;;;;;;;;33.75;33.75;;;;;;;;5029271;28;11552;-71
2024/02/08 18:39:50;;;;;;;;;49.75;39.00;;;;;;;;5030322;28;8827;-72
2024/02/08 18:42:20;;;;;;;;;38.50;35.25;;;;;;;;5028912;28;11560;-72
2024/02/08 18:44:47;;;;;;;;;44.00;38.25;;;;;;;;5028688;28;8823;-74
2024/02/08 18:47:18;;;;;;;;;36.75;35.25;;;;;;;;5030339;28;11550;-71
2024/02/08 18:49:46;;;;;;;;;49.00;38.25;;;;;;;;5030323;28;11535;-74
2024/02/08 18:52:15;;;;;;;;;55.00;42.75;;;;;;;;5029600;28;11658;-73
2024/02/08 18:54:44;;;;;;;;;52.50;41.00;;;;;;;;5029711;28;11557;-72
2024/02/08 18:57:10;;;;;;;;;47.00;41.00;;;;;;;;5030222;28;11601;-72
2024/02/08 18:59:36;;;;;;;;;51.50;41.50;;;;;;;;5025153;28;11726;-74
2024/02/08 19:02:07;;;;;;;;;48.75;41.75;;;;;;;;5029953;28;11646;-76
2024/02/08 19:04:34;;;;;;;;;45.25;35.00;;;;;;;;5028818;28;8827;-76
2024/02/08 19:07:00;;;;;;;;;44.75;36.00;;;;;;;;5030206;28;12212;-76
2024/02/08 19:09:26;;;;;;;;;39.75;33.50;;;;;;;;5030304;28;11535;-75
2024/02/08 19:11:55;;;;;;;;;50.50;40.00;;;;;;;;5030221;28;11630;-75
2024/02/08 19:14:22;;;;;;;;;41.75;37.00;;;;;;;;5029956;28;8834;-74
2024/02/08 19:16:49;;;;;;;;;43.25;35.75;;;;;;;;5046967;22;11572;-72
2024/02/08 19:19:17;;;;;;;;;43.25;36.25;;;;;;;;5029578;28;11579;-73
2024/02/08 19:21:42;;;;;;;;;46.00;35.50;;;;;;;;5029288;28;11514;-73
2024/02/08 19:24:12;;;;;;;;;39.50;36.00;;;;;;;;5029240;28;11584;-80
2024/02/08 19:26:38;;;;;;;;;40.00;39.00;;;;;;;;5027431;28;8824;-83
2024/02/08 19:29:06;;;;;;;;;44.75;37.75;;;;;;;;5007991;28;11546;-77
2024/02/08 19:31:32;;;;;;;;;42.00;38.00;;;;;;;;5026102;28;8797;-78
2024/02/08 19:34:02;;;;;;;;;46.00;37.50;;;;;;;;5029601;28;12302;-83
2024/02/08 19:36:29;;;;;;;;;43.25;38.50;;;;;;;;5018101;28;11542;-81
2024/02/08 19:38:55;;;;;;;;;43.50;39.00;;;;;;;;5025412;28;11517;-83
2024/02/08 19:41:21;;;;;;;;;48.25;40.00;;;;;;;;5030016;28;11520;-78
2024/02/08 19:43:46;;;;;;;;;47.00;38.50;;;;;;;;5026385;28;8832;-77
2024/02/08 19:46:17;;;;;;;;;45.50;41.25;;;;;;;;5043515;28;8794;-76
2024/02/08 19:48:44;;;;;;;;;51.50;41.25;;;;;;;;5040860;28;8792;-74
2024/02/08 19:51:10;;;;;;;;;43.50;39.00;;;;;;;;5033900;28;11477;-75
2024/02/08 19:53:37;;;;;;;;;53.50;43.75;;;;;;;;5033824;28;12265;-74
2024/02/08 19:56:07;;;;;;;;;55.00;43.25;;;;;;;;5031441;28;8801;-75
2024/02/08 19:58:33;;;;;;;;;53.75;43.00;;;;;;;;5015628;28;11560;-75
2024/02/08 20:01:09;;;;;;;;;54.25;43.75;;;;;;;;5015824;28;11584;-77
2024/02/08 20:03:34;;;;;;;;;48.00;40.25;;;;;;;;5045707;28;11566;-72
2024/02/08 20:06:00;;;;;;;;;51.00;44.25;;;;;;;;5037414;28;11539;-73
2024/02/08 20:08:29;;;;;;;;;45.00;39.75;;;;;;;;5026410;28;8893;-75
2024/02/08 20:10:57;;;;;;;;;52.75;41.00;;;;;;;;5036775;28;11516;-76
2024/02/08 20:13:24;;;;;;;;;40.50;35.50;;;;;;;;5045005;28;11603;-77
2024/02/08 20:15:51;;;;;;;;;37.75;33.50;;;;;;;;5032912;28;11508;-78
2024/02/08 20:18:20;;;;;;;;;43.00;37.25;;;;;;;;5047350;23;11765;-76
2024/02/08 20:20:51;;;;;;;;;36.25;32.50;;;;;;;;5041576;28;11577;-76
2024/02/08 20:23:21;;;;;;;;;41.50;36.00;;;;;;;;5040415;28;11631;-76
2024/02/08 20:25:48;;;;;;;;;40.50;36.75;;;;;;;;5037260;28;11621;-76
2024/02/08 20:28:15;;;;;;;;;40.25;37.25;;;;;;;;5046044;28;11615;-76
2024/02/08 20:30:46;;;;;;;;;35.25;33.00;;;;;;;;5040642;28;11577;-79
2024/02/08 20:33:13;;;;;;;;;41.00;40.00;;;;;;;;5045048;28;12281;-78
2024/02/08 20:35:41;;;;;;;;;33.75;31.50;;;;;;;;5041444;28;11541;-79
2024/02/08 20:38:11;;;;;;;;;38.50;33.00;;;;;;;;5039369;28;12516;-79
2024/02/08 20:40:37;;;;;;;;;42.00;37.25;;;;;;;;5034065;28;11534;-77
2024/02/08 20:43:10;;;;;;;;;45.00;37.25;;;;;;;;5041885;28;11592;-82
2024/02/08 20:45:35;;;;;;;;;34.00;30.75;;;;;;;;5036544;28;9557;-78
2024/02/08 20:48:07;;;;;;;;;39.25;36.00;;;;;;;;5041633;28;11645;-77
2024/02/08 20:50:34;;;;;;;;;41.25;33.25;;;;;;;;5039348;28;9563;-75
2024/02/08 20:52:59;;;;;;;;;34.75;32.50;;;;;;;;5040406;28;11556;-74
2024/02/08 20:55:31;;;;;;;;;39.25;36.50;;;;;;;;5040658;28;11565;-75
2024/02/08 20:57:59;;;;;;;;;39.25;34.50;;;;;;;;5033042;28;8932;-75
2024/02/08 21:00:29;;;;;;;;;46.00;39.75;;;;;;;;5040364;28;11554;-75
2024/02/08 21:02:55;;;;;;;;;47.75;41.00;;;;;;;;5030509;28;8816;-76
2024/02/08 21:05:22;;;;;;;;;37.50;32.25;;;;;;;;5034085;28;11605;-76
2024/02/08 21:07:49;;;;;;;;;30.00;29.50;;;;;;;;5033119;28;8885;-77
2024/02/08 21:10:16;;;;;;;;;35.50;29.25;;;;;;;;5029009;28;11561;-76
2024/02/08 21:12:42;;;;;;;;;38.25;32.25;;;;;;;;5032379;28;11547;-77
2024/02/08 21:15:08;;;;;;;;;36.75;32.00;;;;;;;;5031014;28;11661;-76
2024/02/08 21:17:38;;;;;;;;;40.50;35.50;;;;;;;;5038117;28;8867;-76
2024/02/08 21:20:04;;;;;;;;;40.50;33.50;;;;;;;;5033276;28;12349;-77
2024/02/08 21:22:29;;;;;;;;;44.50;35.50;;;;;;;;5033363;28;11571;-77
2024/02/08 21:24:55;;;;;;;;;42.00;34.00;;;;;;;;5033897;28;11559;-76
2024/02/08 21:27:20;;;;;;;;;42.50;36.25;;;;;;;;5035987;28;8817;-76
2024/02/08 21:29:46;;;;;;;;;37.75;33.50;;;;;;;;5036612;28;9589;-77
2024/02/08 21:32:11;;;;;;;;;53.00;39.25;;;;;;;;5033368;28;9531;-76
2024/02/08 21:34:37;;;;;;;;;40.25;35.50;;;;;;;;5028993;28;8804;-77
2024/02/08 21:37:09;;;;;;;;;41.25;34.75;;;;;;;;5033780;28;8805;-76
2024/02/08 21:39:39;;;;;;;;;46.00;39.00;;;;;;;;5032692;28;8865;-76
2024/02/08 21:42:08;;;;;;;;;43.00;39.75;;;;;;;;5036037;28;11579;-77
2024/02/08 21:44:38;;;;;;;;;46.75;37.75;;;;;;;;5028473;28;11621;-78
2024/02/08 21:47:05;;;;;;;;;34.50;31.25;;;;;;;;5032335;28;11591;-79
2024/02/08 21:49:30;;;;;;;;;37.50;27.75;;;;;;;;5031841;28;11535;-79
2024/02/08 21:51:55;;;;;;;;;44.75;38.25;;;;;;;;5033993;28;11590;-78
2024/02/08 21:54:21;;;;;;;;;45.00;35.75;;;;;;;;5034630;28;8816;-77
2024/02/08 21:56:47;;;;;;;;;44.50;41.75;;;;;;;;5034651;28;8811;-78
2024/02/08 21:59:14;;;;;;;;;46.75;42.50;;;;;;;;5036310;28;8800;-78
2024/02/08 22:01:39;;;;;;;;;39.50;36.50;;;;;;;;5034547;28;8800;-78
2024/02/08 22:04:04;;;;;;;;;39.00;39.00;;;;;;;;5032868;28;11657;-78
2024/02/08 22:06:32;;;;;;;;;38.75;35.00;;;;;;;;5032272;28;8796;-77
2024/02/08 22:08:58;;;;;;;;;39.50;35.00;;;;;;;;5030511;28;8808;-78
2024/02/08 22:11:23;;;;;;;;;46.75;38.25;;;;;;;;5031282;28;12444;-77
2024/02/08 22:13:48;;;;;;;;;43.50;37.75;;;;;;;;5046730;28;8808;-77
2024/02/08 22:16:20;;;;;;;;;35.75;34.50;;;;;;;;5031323;28;8800;-77
2024/02/08 22:18:46;;;;;;;;;42.75;34.75;;;;;;;;5032979;28;8908;-77
2024/02/08 22:21:15;;;;;;;;;30.25;26.00;;;;;;;;5028993;28;11579;-77
2024/02/08 22:23:40;;;;;;;;;39.00;34.50;;;;;;;;5031731;28;8839;-78
2024/02/08 22:26:06;;;;;;;;;35.00;31.00;;;;;;;;5030537;28;12350;-77
2024/02/08 22:28:32;;;;;;;;;30.25;28.25;;;;;;;;5029190;28;8824;-78
2024/02/08 22:30:57;;;;;;;;;33.75;30.75;;;;;;;;5030610;28;11547;-78
2024/02/08 22:33:22;;;;;;;;;25.75;25.75;;;;;;;;5030401;28;8783;-78
2024/02/08 22:35:49;;;;;;;;;27.75;27.50;;;;;;;;5029409;28;8973;-77
2024/02/08 22:38:19;;;;;;;;;31.75;27.25;;;;;;;;5030946;28;8838;-78
2024/02/08 22:40:47;;;;;;;;;29.00;25.50;;;;;;;;5030181;28;11538;-77
2024/02/08 22:43:12;;;;;;;;;30.00;27.75;;;;;;;;5029537;28;11560;-73
2024/02/08 22:45:37;;;;;;;;;29.00;26.75;;;;;;;;5029620;28;12346;-74
2024/02/08 22:48:03;;;;;;;;;28.75;23.75;;;;;;;;5032095;28;9640;-72
2024/02/08 22:50:29;;;;;;;;;30.00;25.00;;;;;;;;5030097;28;8796;-71
2024/02/08 22:52:56;;;;;;;;;28.50;27.00;;;;;;;;5028768;28;9549;-71
2024/02/08 22:55:21;;;;;;;;;31.75;22.75;;;;;;;;5028625;28;8788;-73
2024/02/08 22:57:48;;;;;;;;;24.25;21.75;;;;;;;;5029983;28;11539;-73
2024/02/08 23:00:47;;;;;;;;;26.75;24.25;;;;;;;;5027366;28;8788;-73
2024/02/08 23:03:07;;;;;;;;;25.75;24.75;;;;;;;;5029318;28;11580;-74
2024/02/08 23:05:39;;;;;;;;;24.75;23.50;;;;;;;;5027154;28;11540;-73
2024/02/08 23:08:10;;;;;;;;;25.50;25.25;;;;;;;;5029880;28;11628;-73
2024/02/08 23:10:36;;;;;;;;;29.25;25.50;;;;;;;;5027472;28;11578;-73
2024/02/08 23:13:09;;;;;;;;;25.00;21.50;;;;;;;;5029735;28;11580;-73
2024/02/08 23:15:35;;;;;;;;;26.75;23.50;;;;;;;;5028527;28;8852;-73
2024/02/08 23:18:02;;;;;;;;;32.00;25.25;;;;;;;;5043759;23;11558;-68
2024/02/08 23:20:29;;;;;;;;;26.50;21.50;;;;;;;;5028982;28;11564;-69
2024/02/08 23:22:56;;;;;;;;;32.50;26.00;;;;;;;;5028866;28;11665;-68
2024/02/08 23:25:22;;;;;;;;;31.25;24.50;;;;;;;;5028902;28;11678;-68
2024/02/08 23:27:47;;;;;;;;;32.75;26.75;;;;;;;;5029013;28;11665;-68
2024/02/08 23:30:14;;;;;;;;;31.50;28.25;;;;;;;;5029095;28;9541;-68
2024/02/08 23:32:42;;;;;;;;;33.50;29.75;;;;;;;;5028872;28;8824;-68
2024/02/08 23:35:12;;;;;;;;;24.50;23.75;;;;;;;;5028872;28;8808;-69
2024/02/08 23:37:40;;;;;;;;;34.75;29.00;;;;;;;;5027103;28;11671;-68
2024/02/08 23:40:09;;;;;;;;;30.25;26.50;;;;;;;;5029064;28;11559;-67
2024/02/08 23:42:39;;;;;;;;;33.25;27.50;;;;;;;;5027430;28;11575;-68
2024/02/08 23:45:05;;;;;;;;;30.75;29.75;;;;;;;;5028827;28;11641;-69
2024/02/08 23:47:31;;;;;;;;;30.75;27.25;;;;;;;;5033183;28;11535;-68
2024/02/08 23:49:56;;;;;;;;;33.50;29.50;;;;;;;;5049396;28;9473;-68
